Time;durP1;ratioP1;P1;durP2;ratioP2;P2;SDS_P1;SDS_P2;PMS_P1;PMS_P2;Temp;Humidity;BMP_temperature;BMP_pressure;BME280_temperature;BME280_humidity;BME280_pressure;Samples;Min_cycle;Max_cycle;Signal;HPM_P1;HPM_P2
2022/10/06 00:01:29;;;;;;;5.95;3.70;;;;;;;;;;5136081;27;20364;-75
2022/10/06 00:04:14;;;;;;;5.80;3.60;;;;;;;;;;5136819;27;20033;-73
2022/10/06 00:07:00;;;;;;;8.88;4.07;;;;;;;;;;5136947;27;20016;-74
2022/10/06 00:09:45;;;;;;;6.65;3.63;;;;;;;;;;5136407;27;20521;-75
2022/10/06 00:12:41;;;;;;;6.13;3.80;;;;;;;;;;5136607;27;20087;-73
2022/10/06 00:15:28;;;;;;;5.53;4.18;;;;;;;;;;5135535;27;20325;-74
2022/10/06 00:18:13;;;;;;;4.90;3.65;;;;;;;;;;5137009;27;20334;-74
2022/10/06 00:21:00;;;;;;;6.80;4.13;;;;;;;;;;5121983;27;20030;-73
2022/10/06 00:23:45;;;;;;;4.93;3.47;;;;;;;;;;5136950;27;20030;-73
2022/10/06 00:26:31;;;;;;;5.50;3.80;;;;;;;;;;5135935;27;20019;-73
2022/10/06 00:29:17;;;;;;;4.65;3.53;;;;;;;;;;5136399;27;20012;-74
2022/10/06 00:32:03;;;;;;;5.53;3.78;;;;;;;;;;5136071;27;20023;-73
2022/10/06 00:34:48;;;;;;;5.82;3.53;;;;;;;;;;5135592;27;20077;-74
2022/10/06 00:37:35;;;;;;;5.75;3.97;;;;;;;;;;5135784;27;20098;-74
2022/10/06 00:40:21;;;;;;;7.28;4.00;;;;;;;;;;5136404;27;20034;-74
2022/10/06 00:43:26;;;;;;;6.38;3.70;;;;;;;;;;5121318;27;20046;-73
2022/10/06 00:46:14;;;;;;;4.60;3.53;;;;;;;;;;5120509;27;20364;-74
2022/10/06 00:49:11;;;;;;;4.47;3.50;;;;;;;;;;5136609;27;20023;-73
2022/10/06 00:52:01;;;;;;;6.57;3.63;;;;;;;;;;5123493;27;20353;-73
2022/10/06 00:54:47;;;;;;;5.22;4.05;;;;;;;;;;5120684;27;20043;-73
2022/10/06 00:57:33;;;;;;;5.20;3.38;;;;;;;;;;5136150;27;20452;-74
2022/10/06 01:00:19;;;;;;;5.78;3.63;;;;;;;;;;5135154;27;20023;-73
2022/10/06 01:03:16;;;;;;;4.30;3.40;;;;;;;;;;5121319;27;20024;-74
2022/10/06 01:06:02;;;;;;;4.40;3.90;;;;;;;;;;5119750;27;20043;-74
2022/10/06 01:08:48;;;;;;;6.03;4.00;;;;;;;;;;5134883;27;20357;-74
2022/10/06 01:11:36;;;;;;;5.25;3.78;;;;;;;;;;5127195;27;20019;-73
2022/10/06 01:14:23;;;;;;;5.50;3.90;;;;;;;;;;5137654;27;20035;-73
2022/10/06 01:17:14;;;;;;;5.13;3.80;;;;;;;;;;5135174;27;20015;-74
2022/10/06 01:20:07;;;;;;;5.03;3.80;;;;;;;;;;5135813;27;20032;-73
2022/10/06 01:23:00;;;;;;;8.65;3.65;;;;;;;;;;5135420;27;20019;-74
2022/10/06 01:25:46;;;;;;;5.97;3.95;;;;;;;;;;5135644;27;20440;-73
2022/10/06 01:28:31;;;;;;;5.72;3.88;;;;;;;;;;5120357;27;20020;-73
2022/10/06 01:31:17;;;;;;;5.03;3.58;;;;;;;;;;5135790;27;20027;-74
2022/10/06 01:34:03;;;;;;;7.55;4.22;;;;;;;;;;5135124;27;20333;-73
2022/10/06 01:36:48;;;;;;;5.07;3.90;;;;;;;;;;5135048;27;20021;-73
2022/10/06 01:39:34;;;;;;;4.93;3.30;;;;;;;;;;5135546;27;20049;-73
2022/10/06 01:42:19;;;;;;;6.22;3.95;;;;;;;;;;5135436;27;20102;-72
2022/10/06 01:45:05;;;;;;;6.15;3.70;;;;;;;;;;5133989;27;20033;-73
2022/10/06 01:47:51;;;;;;;6.47;3.90;;;;;;;;;;5133434;27;20405;-73
2022/10/06 01:50:39;;;;;;;5.40;3.35;;;;;;;;;;5135438;27;20062;-73
2022/10/06 01:53:24;;;;;;;4.70;3.50;;;;;;;;;;5134783;27;20039;-73
2022/10/06 01:56:10;;;;;;;4.57;3.60;;;;;;;;;;5135090;27;20027;-74
2022/10/06 01:58:55;;;;;;;4.65;3.72;;;;;;;;;;5120413;28;20152;-74
2022/10/06 02:01:41;;;;;;;4.57;3.67;;;;;;;;;;5134829;28;20034;-74
2022/10/06 02:04:26;;;;;;;4.18;3.50;;;;;;;;;;5120227;28;20015;-74
2022/10/06 02:07:12;;;;;;;6.20;3.90;;;;;;;;;;5134570;28;20042;-73
2022/10/06 02:09:58;;;;;;;4.63;3.45;;;;;;;;;;5134325;28;20015;-74
2022/10/06 02:12:43;;;;;;;8.32;4.60;;;;;;;;;;5134538;28;20106;-73
2022/10/06 02:15:32;;;;;;;9.10;5.10;;;;;;;;;;5134033;28;20022;-74
2022/10/06 02:18:17;;;;;;;7.45;4.45;;;;;;;;;;5134764;28;20020;-74
2022/10/06 02:21:03;;;;;;;5.75;4.22;;;;;;;;;;5134515;28;20023;-73
2022/10/06 02:23:49;;;;;;;5.85;4.18;;;;;;;;;;5134805;28;20034;-74
2022/10/06 02:26:34;;;;;;;5.70;4.55;;;;;;;;;;5120127;28;20102;-73
2022/10/06 02:29:20;;;;;;;5.63;4.43;;;;;;;;;;5134457;28;20023;-74
2022/10/06 02:32:06;;;;;;;6.28;3.80;;;;;;;;;;5134193;28;20469;-74
2022/10/06 02:34:51;;;;;;;7.95;5.60;;;;;;;;;;5119463;28;20039;-73
2022/10/06 02:37:38;;;;;;;8.85;5.18;;;;;;;;;;5135624;28;20042;-74
2022/10/06 02:40:24;;;;;;;8.20;5.30;;;;;;;;;;5134660;28;20023;-74
2022/10/06 02:43:09;;;;;;;9.00;4.45;;;;;;;;;;5134829;28;20437;-74
2022/10/06 02:45:56;;;;;;;6.63;4.38;;;;;;;;;;5134373;28;20031;-74
2022/10/06 02:48:42;;;;;;;5.20;4.20;;;;;;;;;;5134849;28;20023;-73
2022/10/06 02:51:28;;;;;;;7.43;4.25;;;;;;;;;;5134017;28;20104;-74
2022/10/06 02:54:14;;;;;;;5.22;4.22;;;;;;;;;;5119052;28;20153;-73
2022/10/06 02:57:00;;;;;;;6.68;4.13;;;;;;;;;;5133867;28;20357;-75
2022/10/06 02:59:45;;;;;;;7.25;4.88;;;;;;;;;;5134362;28;20012;-74
2022/10/06 03:02:31;;;;;;;8.13;4.97;;;;;;;;;;5133931;28;20051;-74
2022/10/06 03:05:16;;;;;;;9.30;5.25;;;;;;;;;;5120172;28;20287;-73
2022/10/06 03:08:02;;;;;;;8.07;5.10;;;;;;;;;;5134528;28;20135;-73
2022/10/06 03:10:47;;;;;;;7.18;4.90;;;;;;;;;;5134796;28;20330;-74
2022/10/06 03:13:33;;;;;;;7.00;4.50;;;;;;;;;;5134706;28;20030;-74
2022/10/06 03:16:18;;;;;;;8.40;4.47;;;;;;;;;;5135748;27;20102;-74
2022/10/06 03:19:05;;;;;;;7.10;4.78;;;;;;;;;;5137287;27;20019;-73
2022/10/06 03:21:51;;;;;;;9.13;5.10;;;;;;;;;;5136731;27;20110;-73
2022/10/06 03:24:36;;;;;;;6.65;4.90;;;;;;;;;;5137000;27;20088;-73
2022/10/06 03:27:22;;;;;;;12.73;6.47;;;;;;;;;;5137584;27;20027;-75
2022/10/06 03:30:08;;;;;;;9.73;5.55;;;;;;;;;;5136337;27;20027;-73
2022/10/06 03:32:54;;;;;;;12.32;6.25;;;;;;;;;;5137476;27;20060;-73
2022/10/06 03:35:39;;;;;;;8.63;5.57;;;;;;;;;;5122933;27;20432;-73
2022/10/06 03:38:25;;;;;;;9.20;5.45;;;;;;;;;;5137082;27;20015;-74
2022/10/06 03:41:12;;;;;;;11.43;5.35;;;;;;;;;;5136864;27;20441;-73
2022/10/06 03:43:58;;;;;;;8.30;5.00;;;;;;;;;;5137520;27;20080;-73
2022/10/06 03:46:44;;;;;;;6.47;4.72;;;;;;;;;;5121454;27;20019;-73
2022/10/06 03:49:29;;;;;;;8.18;5.40;;;;;;;;;;5122765;27;20023;-73
2022/10/06 03:52:15;;;;;;;6.90;4.72;;;;;;;;;;5122308;27;20015;-73
2022/10/06 03:55:01;;;;;;;6.22;4.72;;;;;;;;;;5136285;27;20063;-74
2022/10/06 03:57:46;;;;;;;5.00;4.20;;;;;;;;;;5137309;27;20093;-73
2022/10/06 04:00:32;;;;;;;8.77;4.35;;;;;;;;;;5136932;27;20031;-72
2022/10/06 04:03:20;;;;;;;6.75;4.80;;;;;;;;;;5123514;27;20019;-74
2022/10/06 04:06:08;;;;;;;11.60;5.60;;;;;;;;;;5136917;27;20026;-74
2022/10/06 04:08:54;;;;;;;6.43;4.80;;;;;;;;;;5136910;27;20102;-73
2022/10/06 04:11:40;;;;;;;7.03;4.82;;;;;;;;;;5137053;27;20104;-74
2022/10/06 04:14:26;;;;;;;7.82;5.28;;;;;;;;;;5136873;27;20415;-75
2022/10/06 04:17:12;;;;;;;9.95;5.57;;;;;;;;;;5136541;27;20098;-74
2022/10/06 04:19:57;;;;;;;8.07;5.05;;;;;;;;;;5135984;27;20030;-75
2022/10/06 04:22:43;;;;;;;6.18;4.80;;;;;;;;;;5136089;27;20019;-73
2022/10/06 04:25:28;;;;;;;10.90;5.40;;;;;;;;;;5135743;27;20011;-73
2022/10/06 04:28:14;;;;;;;9.70;5.63;;;;;;;;;;5135518;27;20033;-73
2022/10/06 04:31:00;;;;;;;8.13;5.30;;;;;;;;;;5136840;27;20038;-73
2022/10/06 04:33:46;;;;;;;10.10;5.55;;;;;;;;;;5136527;27;20015;-73
2022/10/06 04:36:33;;;;;;;8.88;5.60;;;;;;;;;;5136322;27;20061;-74
2022/10/06 04:39:19;;;;;;;8.68;5.50;;;;;;;;;;5136448;27;20076;-74
2022/10/06 04:42:06;;;;;;;13.48;5.53;;;;;;;;;;5135806;27;20114;-73
2022/10/06 04:44:51;;;;;;;8.18;5.35;;;;;;;;;;5121861;27;20043;-73
2022/10/06 04:47:37;;;;;;;11.52;5.10;;;;;;;;;;5121509;27;20122;-73
2022/10/06 04:50:22;;;;;;;10.70;5.50;;;;;;;;;;5121278;27;20360;-73
2022/10/06 04:53:08;;;;;;;15.63;5.38;;;;;;;;;;5121804;27;20460;-73
2022/10/06 04:55:58;;;;;;;9.38;5.22;;;;;;;;;;5135923;27;20042;-73
2022/10/06 04:58:45;;;;;;;10.30;5.05;;;;;;;;;;5134738;27;20019;-73
2022/10/06 05:01:32;;;;;;;12.82;6.32;;;;;;;;;;5119899;27;20437;-74
2022/10/06 05:04:17;;;;;;;15.15;5.70;;;;;;;;;;5135790;27;20117;-73
2022/10/06 05:07:03;;;;;;;9.25;5.40;;;;;;;;;;5136818;27;20016;-72
2022/10/06 05:09:48;;;;;;;9.32;5.82;;;;;;;;;;5135340;27;20054;-73
2022/10/06 05:12:34;;;;;;;13.20;5.40;;;;;;;;;;5120942;27;20023;-73
2022/10/06 05:15:19;;;;;;;10.75;5.78;;;;;;;;;;5121577;27;20015;-73
2022/10/06 05:18:05;;;;;;;8.57;5.53;;;;;;;;;;5135628;27;20132;-73
2022/10/06 05:20:55;;;;;;;13.50;5.60;;;;;;;;;;5134825;27;20087;-73
2022/10/06 05:23:41;;;;;;;10.98;5.32;;;;;;;;;;5134700;27;20102;-72
2022/10/06 05:26:28;;;;;;;9.50;5.38;;;;;;;;;;5134681;27;20084;-72
2022/10/06 05:29:13;;;;;;;13.00;6.28;;;;;;;;;;5120290;27;20023;-73
2022/10/06 05:31:59;;;;;;;16.17;6.25;;;;;;;;;;5134357;27;20033;-71
2022/10/06 05:34:45;;;;;;;10.45;5.80;;;;;;;;;;5121069;27;20015;-72
2022/10/06 05:37:30;;;;;;;16.42;5.68;;;;;;;;;;5134823;27;20349;-73
2022/10/06 05:40:16;;;;;;;18.27;5.57;;;;;;;;;;5135905;27;20129;-72
2022/10/06 05:43:01;;;;;;;10.25;5.70;;;;;;;;;;5121344;27;20138;-72
2022/10/06 05:45:54;;;;;;;9.93;5.78;;;;;;;;;;5134130;27;20019;-73
2022/10/06 05:48:39;;;;;;;12.30;6.18;;;;;;;;;;5118924;28;20093;-73
2022/10/06 05:51:26;;;;;;;12.43;6.25;;;;;;;;;;5135008;27;20030;-73
2022/10/06 05:54:13;;;;;;;13.65;5.95;;;;;;;;;;5134224;27;20055;-74
2022/10/06 05:56:58;;;;;;;14.02;5.75;;;;;;;;;;5121101;27;20027;-74
2022/10/06 05:59:44;;;;;;;14.05;5.25;;;;;;;;;;5119957;28;20035;-73
2022/10/06 06:02:29;;;;;;;13.10;5.80;;;;;;;;;;5135602;28;20019;-74
2022/10/06 06:05:15;;;;;;;12.60;5.47;;;;;;;;;;5135263;28;20019;-75
2022/10/06 06:08:01;;;;;;;10.13;4.97;;;;;;;;;;5120233;28;20024;-74
2022/10/06 06:10:47;;;;;;;8.05;5.07;;;;;;;;;;5119763;28;20019;-73
2022/10/06 06:13:33;;;;;;;15.73;5.95;;;;;;;;;;5120307;28;20341;-73
2022/10/06 06:16:18;;;;;;;8.40;5.28;;;;;;;;;;5118826;28;20030;-74
2022/10/06 06:19:05;;;;;;;9.68;4.70;;;;;;;;;;5134975;28;20027;-74
2022/10/06 06:21:51;;;;;;;11.07;4.95;;;;;;;;;;5134988;28;20027;-74
2022/10/06 06:24:36;;;;;;;10.30;4.65;;;;;;;;;;5133522;28;20416;-74
2022/10/06 06:27:22;;;;;;;11.23;5.25;;;;;;;;;;5135112;28;20030;-74
2022/10/06 06:30:08;;;;;;;12.40;5.20;;;;;;;;;;5135071;28;20099;-74
2022/10/06 06:32:56;;;;;;;13.13;4.70;;;;;;;;;;5133883;28;20069;-74
2022/10/06 06:35:42;;;;;;;12.02;5.10;;;;;;;;;;5134918;28;20031;-73
2022/10/06 06:38:31;;;;;;;7.95;4.30;;;;;;;;;;5134691;28;20017;-74
2022/10/06 06:41:18;;;;;;;11.52;4.57;;;;;;;;;;5119240;28;20023;-74
2022/10/06 06:44:05;;;;;;;9.05;4.93;;;;;;;;;;5118465;28;20023;-73
2022/10/06 06:46:51;;;;;;;8.63;4.63;;;;;;;;;;5134602;28;20027;-73
2022/10/06 06:49:37;;;;;;;10.10;4.70;;;;;;;;;;5134813;27;20051;-74
2022/10/06 06:52:24;;;;;;;5.60;4.47;;;;;;;;;;5123790;27;20360;-73
2022/10/06 06:55:10;;;;;;;9.27;4.80;;;;;;;;;;5137350;27;20430;-73
2022/10/06 06:57:55;;;;;;;18.58;4.97;;;;;;;;;;5124273;27;20019;-74
2022/10/06 07:00:41;;;;;;;9.48;4.88;;;;;;;;;;5136862;27;20087;-73
2022/10/06 07:03:28;;;;;;;5.47;4.55;;;;;;;;;;5138105;27;20349;-73
2022/10/06 07:06:15;;;;;;;11.93;4.85;;;;;;;;;;5138307;27;20096;-74
2022/10/06 07:09:00;;;;;;;6.93;4.82;;;;;;;;;;5138509;27;20045;-73
2022/10/06 07:11:46;;;;;;;10.57;4.82;;;;;;;;;;5138003;27;20015;-74
2022/10/06 07:14:31;;;;;;;13.15;5.18;;;;;;;;;;5137447;27;20031;-74
2022/10/06 07:26:40;;;;;;;7.40;4.50;;;;;;;;;;5138372;27;20418;-74
2022/10/06 07:29:26;;;;;;;7.45;4.65;;;;;;;;;;5137588;27;20334;-73
2022/10/06 07:32:12;;;;;;;8.05;4.30;;;;;;;;;;5138203;27;20023;-76
2022/10/06 07:34:58;;;;;;;6.88;4.45;;;;;;;;;;5136931;27;20019;-74
2022/10/06 07:37:43;;;;;;;8.52;5.75;;;;;;;;;;5122185;27;20019;-74
2022/10/06 07:40:29;;;;;;;6.55;4.80;;;;;;;;;;5137030;27;20387;-74
2022/10/06 07:43:15;;;;;;;7.13;4.93;;;;;;;;;;5136958;27;20038;-74
2022/10/06 07:46:01;;;;;;;6.05;4.25;;;;;;;;;;5137356;27;20023;-74
2022/10/06 07:48:47;;;;;;;5.53;3.95;;;;;;;;;;5136770;27;20140;-74
2022/10/06 07:51:33;;;;;;;6.72;4.20;;;;;;;;;;5137531;27;20027;-74
2022/10/06 07:54:19;;;;;;;6.95;3.70;;;;;;;;;;5136926;27;20101;-74
2022/10/06 07:57:05;;;;;;;5.18;4.15;;;;;;;;;;5137177;27;20022;-76
2022/10/06 07:59:51;;;;;;;7.05;4.20;;;;;;;;;;5122343;27;20016;-75
2022/10/06 08:02:37;;;;;;;7.85;4.78;;;;;;;;;;5135757;27;20357;-74
2022/10/06 08:05:23;;;;;;;8.35;4.15;;;;;;;;;;5136799;27;20369;-74
2022/10/06 08:08:09;;;;;;;8.20;3.85;;;;;;;;;;5136256;27;20101;-74
2022/10/06 08:10:55;;;;;;;5.45;4.00;;;;;;;;;;5136937;27;20056;-74
2022/10/06 08:13:42;;;;;;;6.57;4.35;;;;;;;;;;5136223;27;20101;-74
2022/10/06 08:16:28;;;;;;;5.20;4.30;;;;;;;;;;5121260;27;20023;-76
2022/10/06 08:19:16;;;;;;;10.98;6.93;;;;;;;;;;5136998;27;20015;-75
2022/10/06 08:22:02;;;;;;;7.07;3.72;;;;;;;;;;5121811;27;20033;-75
2022/10/06 08:24:47;;;;;;;5.38;3.92;;;;;;;;;;5135995;27;20472;-74
2022/10/06 08:27:34;;;;;;;10.80;4.63;;;;;;;;;;5136756;27;20046;-75
2022/10/06 08:30:19;;;;;;;6.88;4.68;;;;;;;;;;5121259;27;20019;-75
2022/10/06 08:33:05;;;;;;;6.70;4.53;;;;;;;;;;5136108;27;20054;-75
2022/10/06 08:35:50;;;;;;;4.95;3.75;;;;;;;;;;5136952;27;20023;-75
2022/10/06 08:38:37;;;;;;;3.97;3.35;;;;;;;;;;5121786;27;20103;-74
2022/10/06 08:41:27;;;;;;;6.03;4.00;;;;;;;;;;5136457;27;20019;-74
2022/10/06 08:44:15;;;;;;;7.53;4.35;;;;;;;;;;5136538;27;20102;-75
2022/10/06 08:47:07;;;;;;;5.35;3.63;;;;;;;;;;5135370;27;20125;-75
2022/10/06 08:49:53;;;;;;;11.85;6.25;;;;;;;;;;5135293;27;20106;-75
2022/10/06 08:52:40;;;;;;;7.32;4.00;;;;;;;;;;5135590;27;20019;-75
2022/10/06 08:55:28;;;;;;;5.53;3.95;;;;;;;;;;5136204;27;20085;-75
2022/10/06 08:58:14;;;;;;;5.22;3.83;;;;;;;;;;5135512;27;20034;-74
2022/10/06 09:01:08;;;;;;;6.38;4.10;;;;;;;;;;5120905;27;20030;-76
2022/10/06 09:04:00;;;;;;;7.50;3.97;;;;;;;;;;5135403;27;20456;-75
2022/10/06 09:06:50;;;;;;;5.00;4.05;;;;;;;;;;5120348;27;20019;-75
2022/10/06 09:09:50;;;;;;;4.88;4.00;;;;;;;;;;5135808;27;20027;-74
2022/10/06 09:12:53;;;;;;;6.07;4.30;;;;;;;;;;5136272;27;20098;-75
2022/10/06 09:16:00;;;;;;;8.65;3.85;;;;;;;;;;5136628;27;20019;-75
2022/10/06 09:18:48;;;;;;;7.78;3.88;;;;;;;;;;5136807;27;20016;-74
2022/10/06 09:21:38;;;;;;;6.93;4.22;;;;;;;;;;5136676;27;20075;-75
2022/10/06 09:24:29;;;;;;;5.97;4.00;;;;;;;;;;5122483;27;20447;-74
2022/10/06 09:27:20;;;;;;;8.13;4.60;;;;;;;;;;5126946;27;20384;-75
2022/10/06 09:30:07;;;;;;;6.40;4.32;;;;;;;;;;5137296;27;20477;-77
2022/10/06 09:32:57;;;;;;;7.28;4.10;;;;;;;;;;5136114;27;20023;-74
2022/10/06 09:36:05;;;;;;;9.25;4.55;;;;;;;;;;5135850;27;20052;-74
2022/10/06 09:38:54;;;;;;;6.47;4.32;;;;;;;;;;5135489;27;20030;-74
2022/10/06 09:41:43;;;;;;;5.72;4.50;;;;;;;;;;5135589;27;20055;-74
2022/10/06 09:44:49;;;;;;;9.48;4.40;;;;;;;;;;5135649;27;20429;-74
2022/10/06 09:47:35;;;;;;;6.40;4.18;;;;;;;;;;5132203;27;20031;-74
2022/10/06 09:50:24;;;;;;;6.28;3.80;;;;;;;;;;5134167;27;20356;-74
2022/10/06 09:53:11;;;;;;;5.40;4.30;;;;;;;;;;5119639;27;20440;-74
2022/10/06 09:55:57;;;;;;;6.28;4.28;;;;;;;;;;5134721;27;20035;-75
2022/10/06 09:58:55;;;;;;;6.47;3.78;;;;;;;;;;5135810;27;20334;-74
2022/10/06 10:01:40;;;;;;;5.20;3.47;;;;;;;;;;5134561;27;20027;-75
2022/10/06 10:04:26;;;;;;;5.60;3.50;;;;;;;;;;5120332;28;20031;-75
2022/10/06 10:07:23;;;;;;;6.55;2.80;;;;;;;;;;5134398;28;20027;-74
2022/10/06 10:10:14;;;;;;;5.60;3.20;;;;;;;;;;5122956;28;20312;-74
2022/10/06 10:13:00;;;;;;;4.53;2.80;;;;;;;;;;5134730;28;20077;-74
2022/10/06 10:15:53;;;;;;;5.20;2.90;;;;;;;;;;5134919;28;20102;-74
2022/10/06 10:18:44;;;;;;;5.10;3.17;;;;;;;;;;5134733;28;20011;-73
2022/10/06 10:21:34;;;;;;;5.50;3.03;;;;;;;;;;5135204;28;20080;-74
2022/10/06 10:24:25;;;;;;;3.33;2.50;;;;;;;;;;5134838;27;20019;-74
2022/10/06 10:27:16;;;;;;;5.32;3.10;;;;;;;;;;5138340;27;20097;-74
2022/10/06 10:30:13;;;;;;;6.45;3.42;;;;;;;;;;5138682;27;20027;-73
2022/10/06 10:33:05;;;;;;;4.30;3.15;;;;;;;;;;5139019;27;20390;-74
2022/10/06 10:35:51;;;;;;;7.90;3.92;;;;;;;;;;5138678;27;20029;-74
2022/10/06 10:38:41;;;;;;;6.97;3.03;;;;;;;;;;5138944;27;20011;-75
2022/10/06 10:41:29;;;;;;;3.55;2.83;;;;;;;;;;5139055;27;20425;-74
2022/10/06 10:44:26;;;;;;;8.48;4.45;;;;;;;;;;5138557;27;20023;-75
2022/10/06 10:47:20;;;;;;;4.95;3.30;;;;;;;;;;5138525;27;20165;-74
2022/10/06 10:50:10;;;;;;;3.97;3.20;;;;;;;;;;5138546;27;20023;-74
2022/10/06 10:53:02;;;;;;;5.18;3.00;;;;;;;;;;5137793;27;20448;-74
2022/10/06 10:55:49;;;;;;;4.05;2.72;;;;;;;;;;5138473;27;20430;-74
2022/10/06 10:58:37;;;;;;;5.07;2.78;;;;;;;;;;5138674;27;20015;-74
2022/10/06 11:01:25;;;;;;;7.75;3.00;;;;;;;;;;5123103;27;20020;-75
2022/10/06 11:04:12;;;;;;;5.05;3.13;;;;;;;;;;5123464;27;20027;-74
2022/10/06 11:07:00;;;;;;;4.18;2.78;;;;;;;;;;5139035;27;20463;-71
2022/10/06 11:09:59;;;;;;;3.10;2.80;;;;;;;;;;5123561;27;20085;-71
2022/10/06 11:12:51;;;;;;;4.97;2.90;;;;;;;;;;5123539;27;20103;-71
2022/10/06 11:15:36;;;;;;;4.85;2.97;;;;;;;;;;5137612;27;20011;-71
2022/10/06 11:18:42;;;;;;;6.03;2.90;;;;;;;;;;5137634;27;20023;-71
2022/10/06 11:21:31;;;;;;;4.82;2.95;;;;;;;;;;5136957;27;20019;-71
2022/10/06 11:24:17;;;;;;;4.60;3.05;;;;;;;;;;5137544;27;20052;-72
2022/10/06 11:27:31;;;;;;;4.95;2.88;;;;;;;;;;5138850;27;20102;-72
2022/10/06 11:30:18;;;;;;;4.90;2.90;;;;;;;;;;5132052;27;20118;-71
2022/10/06 11:33:30;;;;;;;3.83;2.80;;;;;;;;;;5137758;27;20024;-72
2022/10/06 11:36:20;;;;;;;5.28;3.20;;;;;;;;;;5112025;27;20019;-72
2022/10/06 11:39:06;;;;;;;4.63;2.85;;;;;;;;;;5137207;27;20015;-71
2022/10/06 11:41:57;;;;;;;3.60;2.92;;;;;;;;;;5122784;27;20422;-72
2022/10/06 11:44:46;;;;;;;4.68;2.80;;;;;;;;;;5137535;27;20070;-71
2022/10/06 11:47:46;;;;;;;5.43;2.72;;;;;;;;;;5138237;27;20019;-72
2022/10/06 11:50:32;;;;;;;4.07;2.90;;;;;;;;;;5138195;27;20027;-72
2022/10/06 11:53:36;;;;;;;3.38;2.65;;;;;;;;;;5136818;27;20019;-72
2022/10/06 11:56:22;;;;;;;4.53;2.55;;;;;;;;;;5138191;27;20068;-72
2022/10/06 11:59:09;;;;;;;4.82;2.90;;;;;;;;;;5136321;27;20094;-72
2022/10/06 12:01:55;;;;;;;7.18;3.30;;;;;;;;;;5122387;27;20019;-73
2022/10/06 12:05:01;;;;;;;4.07;2.40;;;;;;;;;;5136361;27;20027;-72
2022/10/06 12:07:56;;;;;;;2.55;2.15;;;;;;;;;;5136929;27;20019;-72
2022/10/06 12:10:49;;;;;;;3.55;2.70;;;;;;;;;;5136679;27;20023;-72
2022/10/06 12:13:38;;;;;;;5.55;3.70;;;;;;;;;;5120555;27;20467;-72
2022/10/06 12:16:29;;;;;;;4.95;3.50;;;;;;;;;;5137070;27;20033;-72
2022/10/06 12:19:18;;;;;;;6.47;3.30;;;;;;;;;;5136944;27;20018;-71
2022/10/06 12:22:13;;;;;;;8.10;3.75;;;;;;;;;;5122148;27;20026;-72
2022/10/06 12:25:02;;;;;;;5.95;2.80;;;;;;;;;;5136336;27;20112;-72
2022/10/06 12:28:09;;;;;;;3.25;2.65;;;;;;;;;;5136241;27;20030;-72
2022/10/06 12:30:54;;;;;;;2.80;2.42;;;;;;;;;;5135881;27;20086;-72
2022/10/06 12:33:41;;;;;;;3.63;3.00;;;;;;;;;;5136132;27;20357;-72
2022/10/06 12:36:28;;;;;;;5.25;3.00;;;;;;;;;;5137065;27;20049;-72
2022/10/06 12:39:23;;;;;;;4.88;2.60;;;;;;;;;;5134663;27;20012;-72
2022/10/06 12:42:17;;;;;;;4.93;2.80;;;;;;;;;;5135963;27;20061;-71
2022/10/06 12:45:12;;;;;;;8.05;2.60;;;;;;;;;;5135377;27;20059;-71
2022/10/06 12:47:57;;;;;;;4.47;2.70;;;;;;;;;;5136078;27;20034;-72
2022/10/06 12:50:44;;;;;;;5.50;2.92;;;;;;;;;;5136044;27;20023;-72
2022/10/06 12:53:33;;;;;;;4.57;2.80;;;;;;;;;;5133987;27;20356;-72
2022/10/06 12:56:27;;;;;;;4.40;2.70;;;;;;;;;;5136150;27;20385;-71
2022/10/06 12:59:19;;;;;;;6.78;2.97;;;;;;;;;;5134696;27;20015;-72
2022/10/06 13:02:07;;;;;;;3.70;2.60;;;;;;;;;;5121003;27;20053;-72
2022/10/06 13:04:56;;;;;;;5.32;3.42;;;;;;;;;;5135998;27;20029;-72
2022/10/06 13:07:59;;;;;;;5.60;2.42;;;;;;;;;;5135700;27;20142;-72
2022/10/06 13:10:45;;;;;;;6.30;2.70;;;;;;;;;;5135698;27;20023;-71
2022/10/06 13:13:33;;;;;;;2.72;2.20;;;;;;;;;;5135302;27;20020;-71
2022/10/06 13:16:21;;;;;;;5.07;2.88;;;;;;;;;;5136147;27;20387;-72
2022/10/06 13:19:18;;;;;;;3.38;2.47;;;;;;;;;;5136070;27;20149;-72
2022/10/06 13:22:03;;;;;;;7.22;2.97;;;;;;;;;;5119439;27;20015;-74
2022/10/06 13:24:49;;;;;;;4.45;2.90;;;;;;;;;;5121136;27;20023;-74
2022/10/06 13:27:35;;;;;;;3.55;2.50;;;;;;;;;;5136051;27;20019;-74
2022/10/06 13:30:21;;;;;;;3.95;2.17;;;;;;;;;;5119207;27;20073;-73
2022/10/06 13:33:06;;;;;;;4.28;2.45;;;;;;;;;;5135535;27;20047;-72
2022/10/06 13:35:53;;;;;;;5.95;2.85;;;;;;;;;;5135158;27;20072;-74
2022/10/06 13:38:40;;;;;;;3.60;2.40;;;;;;;;;;5119820;27;20023;-74
2022/10/06 13:41:27;;;;;;;5.30;3.65;;;;;;;;;;5134612;27;20057;-72
2022/10/06 13:44:13;;;;;;;5.68;3.47;;;;;;;;;;5134311;27;20019;-73
2022/10/06 13:47:03;;;;;;;7.75;4.25;;;;;;;;;;5135105;27;20037;-74
2022/10/06 13:49:58;;;;;;;6.70;3.50;;;;;;;;;;5135183;27;20030;-73
2022/10/06 13:52:47;;;;;;;6.03;3.50;;;;;;;;;;5119947;27;20051;-73
2022/10/06 13:55:33;;;;;;;5.25;3.70;;;;;;;;;;5135052;27;20403;-74
2022/10/06 13:58:22;;;;;;;6.70;4.00;;;;;;;;;;5134146;27;20031;-74
2022/10/06 14:01:08;;;;;;;7.35;3.33;;;;;;;;;;5119642;27;20116;-74
2022/10/06 14:04:12;;;;;;;5.13;3.00;;;;;;;;;;5135127;27;20019;-73
2022/10/06 14:07:00;;;;;;;4.80;2.50;;;;;;;;;;5134516;28;20550;-72
2022/10/06 14:09:48;;;;;;;4.30;2.80;;;;;;;;;;5135121;28;20027;-72
2022/10/06 14:12:34;;;;;;;4.35;2.92;;;;;;;;;;5136005;28;20310;-74
2022/10/06 14:15:21;;;;;;;5.47;2.67;;;;;;;;;;5134234;28;20088;-73
2022/10/06 14:18:15;;;;;;;5.78;3.25;;;;;;;;;;5119295;28;20030;-73
2022/10/06 14:21:18;;;;;;;7.03;3.10;;;;;;;;;;5134421;28;20453;-72
2022/10/06 14:24:15;;;;;;;10.20;3.60;;;;;;;;;;5134489;28;20034;-74
2022/10/06 14:27:04;;;;;;;6.57;4.10;;;;;;;;;;5133357;28;20033;-73
2022/10/06 14:29:50;;;;;;;4.60;3.20;;;;;;;;;;5118344;28;20365;-73
2022/10/06 14:32:37;;;;;;;4.80;2.75;;;;;;;;;;5119942;28;20500;-74
2022/10/06 14:35:23;;;;;;;5.65;3.08;;;;;;;;;;5120069;28;20026;-72
2022/10/06 14:38:08;;;;;;;4.60;2.70;;;;;;;;;;5134209;28;20011;-73
2022/10/06 14:40:54;;;;;;;6.10;3.40;;;;;;;;;;5134437;28;20027;-73
2022/10/06 14:43:40;;;;;;;5.97;2.75;;;;;;;;;;5119505;28;20456;-73
2022/10/06 14:46:26;;;;;;;6.22;3.20;;;;;;;;;;5119554;28;20027;-74
2022/10/06 14:49:12;;;;;;;9.50;3.10;;;;;;;;;;5134716;28;20101;-74
2022/10/06 14:51:58;;;;;;;9.88;3.40;;;;;;;;;;5134776;28;20482;-75
2022/10/06 14:54:44;;;;;;;7.95;5.30;;;;;;;;;;5119811;28;20115;-74
2022/10/06 14:57:29;;;;;;;12.35;8.77;;;;;;;;;;5134510;28;20338;-72
2022/10/06 15:00:15;;;;;;;5.35;3.90;;;;;;;;;;5135018;28;20352;-74
2022/10/06 15:03:01;;;;;;;11.63;4.75;;;;;;;;;;5134450;28;20087;-72
2022/10/06 15:08:51;;;;;;;7.63;3.70;;;;;;;;;;5134891;28;20039;-73
2022/10/06 15:11:37;;;;;;;7.55;3.28;;;;;;;;;;5121085;27;20059;-72
2022/10/06 15:14:23;;;;;;;8.55;3.60;;;;;;;;;;5137998;27;20436;-73
2022/10/06 15:17:08;;;;;;;9.82;3.50;;;;;;;;;;5137744;27;20495;-72
2022/10/06 15:19:54;;;;;;;6.80;3.78;;;;;;;;;;5123877;27;20102;-73
2022/10/06 15:22:40;;;;;;;10.05;4.25;;;;;;;;;;5137344;27;20433;-73
2022/10/06 15:31:36;;;;;;;7.63;3.50;;;;;;;;;;5137947;27;20027;-74
2022/10/06 15:34:24;;;;;;;7.93;4.15;;;;;;;;;;5137193;27;20054;-74
2022/10/06 15:37:09;;;;;;;8.60;3.60;;;;;;;;;;5137774;27;20046;-73
2022/10/06 15:39:56;;;;;;;10.25;3.97;;;;;;;;;;5137978;27;20016;-73
2022/10/06 15:42:41;;;;;;;6.35;3.80;;;;;;;;;;5137475;27;20023;-75
2022/10/06 15:45:27;;;;;;;7.28;4.07;;;;;;;;;;5136912;27;20538;-75
2022/10/06 15:48:13;;;;;;;9.20;4.22;;;;;;;;;;5138220;27;20027;-77
2022/10/06 15:50:58;;;;;;;11.60;4.50;;;;;;;;;;5136825;27;20038;-76
2022/10/06 15:53:45;;;;;;;10.88;4.43;;;;;;;;;;5122539;27;20071;-74
2022/10/06 15:56:30;;;;;;;12.63;4.47;;;;;;;;;;5139140;27;20038;-76
2022/10/06 15:59:17;;;;;;;16.35;6.13;;;;;;;;;;5137199;27;20034;-75
2022/10/06 16:02:06;;;;;;;15.73;6.50;;;;;;;;;;5137629;27;20030;-75
2022/10/06 16:05:30;;;;;;;13.52;6.25;;;;;;;;;;5137367;27;20023;-74
2022/10/06 16:08:00;;;;;;;11.65;6.45;;;;;;;;;;5138356;27;20015;-76
2022/10/06 16:10:49;;;;;;;12.43;6.43;;;;;;;;;;5122642;27;20042;-75
2022/10/06 16:13:34;;;;;;;15.68;6.90;;;;;;;;;;5137984;27;20026;-73
2022/10/06 16:16:20;;;;;;;25.02;7.00;;;;;;;;;;5137789;27;20077;-75
2022/10/06 16:19:06;;;;;;;19.40;7.50;;;;;;;;;;5123657;27;20034;-73
2022/10/06 16:21:52;;;;;;;28.83;8.30;;;;;;;;;;5137253;27;20027;-73
2022/10/06 16:24:37;;;;;;;33.50;11.02;;;;;;;;;;5137351;27;20052;-74
2022/10/06 16:27:23;;;;;;;36.50;12.82;;;;;;;;;;5122515;27;20019;-73
2022/10/06 16:30:09;;;;;;;35.80;12.82;;;;;;;;;;5122856;27;20111;-74
2022/10/06 16:32:54;;;;;;;31.75;13.57;;;;;;;;;;5136337;27;20051;-74
2022/10/06 16:35:40;;;;;;;35.17;13.10;;;;;;;;;;5135765;27;20026;-74
2022/10/06 16:38:25;;;;;;;28.90;13.85;;;;;;;;;;5121884;27;20019;-75
2022/10/06 16:41:11;;;;;;;28.55;13.25;;;;;;;;;;5137478;27;20027;-74
2022/10/06 16:43:57;;;;;;;35.85;12.95;;;;;;;;;;5122375;27;20465;-75
2022/10/06 16:46:42;;;;;;;37.85;13.65;;;;;;;;;;5138244;27;20038;-74
2022/10/06 16:49:28;;;;;;;38.28;13.68;;;;;;;;;;5139329;27;20413;-75
2022/10/06 16:52:14;;;;;;;35.90;13.57;;;;;;;;;;5139207;27;20019;-74
2022/10/06 16:55:01;;;;;;;42.00;13.32;;;;;;;;;;5138692;27;20057;-75
2022/10/06 16:57:47;;;;;;;38.22;13.10;;;;;;;;;;5138353;27;20026;-73
2022/10/06 17:00:32;;;;;;;48.92;13.18;;;;;;;;;;5122648;27;20019;-73
2022/10/06 17:03:18;;;;;;;32.95;13.25;;;;;;;;;;5138124;27;20015;-76